createdAt,value
2023-02-23T00:03:23.470Z,8.85
2023-02-23T00:13:25.161Z,9.63
2023-02-23T00:23:27.867Z,9.23
2023-02-23T00:33:31.360Z,9.15
2023-02-23T00:43:37.155Z,9.65
2023-02-23T00:53:38.938Z,9.00
2023-02-23T01:03:41.801Z,9.88
2023-02-23T01:13:47.102Z,10.05
2023-02-23T01:23:50.071Z,9.95
2023-02-23T01:33:58.274Z,9.65
2023-02-23T01:44:09.094Z,9.13
2023-02-23T01:54:16.097Z,9.10
2023-02-23T02:04:19.670Z,9.45
2023-02-23T02:14:31.156Z,8.90
2023-02-23T02:25:12.659Z,9.48
2023-02-23T02:35:51.975Z,10.10
2023-02-23T02:46:13.430Z,9.55
2023-02-23T02:56:20.068Z,9.63
2023-02-23T03:07:01.694Z,8.68
2023-02-23T03:17:38.112Z,9.05
2023-02-23T03:28:12.512Z,9.13
2023-02-23T03:38:41.442Z,8.45
2023-02-23T03:49:04.370Z,9.43
2023-02-23T03:59:25.547Z,8.60
2023-02-23T04:09:45.710Z,8.15
2023-02-23T04:19:54.029Z,9.52
2023-02-23T04:29:55.511Z,9.35
2023-02-23T04:39:57.126Z,8.48
2023-02-23T04:49:58.693Z,8.52
2023-02-23T05:00:00.301Z,8.35
2023-02-23T05:10:02.351Z,9.48
2023-02-23T05:20:04.293Z,7.75
2023-02-23T05:30:08.002Z,8.07
2023-02-23T05:40:10.509Z,8.10
2023-02-23T05:50:12.171Z,8.43
2023-02-23T06:00:14.237Z,7.75
2023-02-23T06:10:15.995Z,8.13
2023-02-23T06:20:17.533Z,7.22
2023-02-23T06:30:19.044Z,6.75
2023-02-23T06:40:21.167Z,7.55
2023-02-23T06:50:22.722Z,6.30
2023-02-23T07:00:24.385Z,7.32
2023-02-23T07:10:25.914Z,6.65
2023-02-23T07:20:27.493Z,6.30
2023-02-23T07:30:29.059Z,5.68
2023-02-23T07:40:30.620Z,5.68
2023-02-23T07:50:32.084Z,5.35
2023-02-23T08:00:34.751Z,5.88
2023-02-23T08:10:36.412Z,6.15
2023-02-23T08:20:38.181Z,9.35
2023-02-23T08:30:40.882Z,7.13
2023-02-23T08:40:43.192Z,5.63
2023-02-23T08:50:44.967Z,5.57
2023-02-23T09:00:46.481Z,5.18
2023-02-23T09:10:47.940Z,6.68
2023-02-23T09:20:50.436Z,4.97
2023-02-23T09:30:51.937Z,4.70
2023-02-23T09:40:55.498Z,4.80
2023-02-23T09:50:58.109Z,5.38
2023-02-23T10:01:29.489Z,4.80
2023-02-23T10:11:51.555Z,4.82
2023-02-23T10:21:59.781Z,6.85
2023-02-23T10:32:27.038Z,6.13
2023-02-23T10:42:28.984Z,5.10
2023-02-23T10:52:43.086Z,4.60
2023-02-23T11:02:45.400Z,4.80
2023-02-23T11:12:49.717Z,4.85
2023-02-23T11:22:52.570Z,4.70
2023-02-23T11:33:02.468Z,4.45
2023-02-23T11:43:09.150Z,4.80
2023-02-23T11:53:16.366Z,5.18
2023-02-23T12:03:21.908Z,5.40
2023-02-23T12:13:41.030Z,6.30
2023-02-23T12:23:44.385Z,4.95
2023-02-23T12:33:47.415Z,5.45
2023-02-23T12:43:51.484Z,7.45
2023-02-23T12:53:53.020Z,9.37
2023-02-23T13:04:13.140Z,7.22
2023-02-23T13:14:32.015Z,7.68
2023-02-23T13:24:37.025Z,7.13
2023-02-23T13:35:02.408Z,7.72
2023-02-23T13:55:28.231Z,7.60
2023-02-23T14:05:31.790Z,9.02
2023-02-23T14:15:37.715Z,9.27
2023-02-23T14:25:39.177Z,9.25
2023-02-23T14:35:44.115Z,9.02
2023-02-23T14:45:46.279Z,8.40
2023-02-23T14:55:48.623Z,9.32
2023-02-23T15:05:55.111Z,7.75
2023-02-23T15:15:57.991Z,6.10
2023-02-23T15:26:00.038Z,6.53
2023-02-23T15:36:04.501Z,6.32
2023-02-23T15:46:06.275Z,4.57
2023-02-23T15:56:16.052Z,5.30
2023-02-23T16:06:24.213Z,7.13
2023-02-23T16:16:25.853Z,7.07
2023-02-23T16:26:42.762Z,5.55
2023-02-23T16:36:49.580Z,6.03
2023-02-23T16:46:53.812Z,4.85
2023-02-23T16:56:56.023Z,6.03
2023-02-23T17:06:58.030Z,6.45
2023-02-23T17:17:02.803Z,5.18
2023-02-23T17:27:04.468Z,6.32
2023-02-23T17:37:07.840Z,7.32
2023-02-23T17:47:09.918Z,5.05
2023-02-23T17:57:11.437Z,5.50
2023-02-23T18:07:13.013Z,6.03
2023-02-23T18:17:15.615Z,7.60
2023-02-23T18:27:17.075Z,5.03
2023-02-23T18:37:25.039Z,6.47
2023-02-23T18:47:26.728Z,6.40
2023-02-23T18:57:28.248Z,6.15
2023-02-23T19:07:33.099Z,5.43
2023-02-23T19:27:36.564Z,3.45
2023-02-23T19:37:40.006Z,4.60
2023-02-23T19:47:42.266Z,4.00
2023-02-23T19:57:43.809Z,6.57
2023-02-23T20:07:45.281Z,4.32
2023-02-23T20:17:48.288Z,4.32
2023-02-23T20:27:53.221Z,4.72
2023-02-23T20:47:56.420Z,4.97
2023-02-23T20:57:58.561Z,4.85
2023-02-23T21:08:07.416Z,3.72
2023-02-23T21:18:09.143Z,4.07
2023-02-23T21:28:10.628Z,4.38
2023-02-23T21:38:12.145Z,3.97
2023-02-23T21:48:15.325Z,3.08
2023-02-23T21:58:16.796Z,3.75
2023-02-23T22:08:18.297Z,2.38
2023-02-23T22:18:19.793Z,2.63
2023-02-23T22:28:21.385Z,2.72
2023-02-23T22:38:23.251Z,2.13
2023-02-23T22:48:24.853Z,3.65
2023-02-23T22:58:26.709Z,3.33
2023-02-23T23:08:37.069Z,3.10
2023-02-23T23:18:42.301Z,2.90
2023-02-23T23:28:49.133Z,2.28
2023-02-23T23:38:51.604Z,3.58
2023-02-23T23:49:05.978Z,2.58
2023-02-23T23:59:14.562Z,3.03
